createdAt,value
2023-05-03T00:00:08.711Z,102024.78
2023-05-03T00:05:18.036Z,102027.06
2023-05-03T00:10:23.928Z,102024.86
2023-05-03T00:15:29.521Z,102026.05
2023-05-03T00:20:35.124Z,102027.88
2023-05-03T00:25:40.687Z,102027.52
2023-05-03T00:30:48.191Z,102028.96
2023-05-03T00:35:53.656Z,102033.94
2023-05-03T00:41:03.254Z,102032.25
2023-05-03T00:46:17.234Z,102025.28
2023-05-03T00:51:21.887Z,102017.98
2023-05-03T00:56:29.492Z,102028.11
2023-05-03T01:01:35.225Z,102030.32
2023-05-03T01:07:00.266Z,102035.77
2023-05-03T01:12:13.355Z,102035.00
2023-05-03T01:17:22.161Z,102028.53
2023-05-03T01:22:44.666Z,102030.03
2023-05-03T01:27:52.350Z,102027.28
2023-05-03T01:33:07.024Z,102038.34
2023-05-03T01:38:15.261Z,102040.67
2023-05-03T01:43:32.064Z,102044.37
2023-05-03T01:48:41.296Z,102045.58
2023-05-03T01:53:49.245Z,102043.13
2023-05-03T01:58:54.714Z,102041.20
2023-05-03T02:04:06.554Z,102043.77
2023-05-03T02:09:13.089Z,102043.77
2023-05-03T02:14:18.755Z,102045.61
2023-05-03T02:19:25.383Z,102057.19
2023-05-03T02:24:31.221Z,102051.92
2023-05-03T02:29:37.045Z,102051.92
2023-05-03T02:34:43.192Z,102054.27
2023-05-03T02:39:49.489Z,102061.36
2023-05-03T02:44:55.321Z,102065.82
2023-05-03T02:50:02.503Z,102063.38
2023-05-03T02:55:10.479Z,102063.38
2023-05-03T03:00:17.808Z,102065.53
2023-05-03T03:05:23.531Z,102066.86
2023-05-03T03:10:29.285Z,102078.39
2023-05-03T03:15:36.472Z,102078.39
2023-05-03T03:20:43.638Z,102076.39
2023-05-03T03:25:49.361Z,102083.11
2023-05-03T03:30:58.005Z,102083.97
2023-05-03T03:36:10.213Z,102082.11
2023-05-03T03:41:17.052Z,102090.55
2023-05-03T03:46:23.248Z,102091.75
2023-05-03T03:51:30.141Z,102093.03
2023-05-03T03:56:36.023Z,102093.03
2023-05-03T04:01:42.547Z,102105.49
2023-05-03T04:06:49.186Z,102108.15
2023-05-03T04:11:55.720Z,102100.58
2023-05-03T04:17:02.184Z,102113.09
2023-05-03T04:22:08.238Z,102116.57
2023-05-03T04:27:15.212Z,102127.20
2023-05-03T04:32:35.824Z,102123.05
2023-05-03T04:37:44.033Z,102129.38
2023-05-03T04:42:51.852Z,102129.19
2023-05-03T04:47:57.979Z,102143.84
2023-05-03T04:53:04.864Z,102143.21
2023-05-03T04:58:12.814Z,102153.39
2023-05-03T05:03:18.626Z,102156.58
2023-05-03T05:14:35.599Z,102159.47
2023-05-03T05:19:54.276Z,102163.66
2023-05-03T05:24:59.766Z,102168.98
2023-05-03T05:30:07.403Z,102185.34
2023-05-03T05:35:13.396Z,102190.71
2023-05-03T05:40:19.299Z,102189.80
2023-05-03T05:45:26.559Z,102199.69
2023-05-03T05:50:33.824Z,102186.08
2023-05-03T05:55:55.658Z,102193.72
2023-05-03T06:01:03.908Z,102202.19
2023-05-03T06:11:43.287Z,102212.64
2023-05-03T06:16:50.477Z,102208.22
2023-05-03T06:27:54.685Z,102216.42
2023-05-03T06:33:10.079Z,102222.73
2023-05-03T06:38:43.946Z,102220.97
2023-05-03T06:43:49.473Z,102218.08
2023-05-03T06:48:58.063Z,102224.97
2023-05-03T06:54:06.405Z,102219.41
2023-05-03T06:59:11.902Z,102210.70
2023-05-03T07:04:17.629Z,102221.76
2023-05-03T07:14:44.481Z,102221.52
2023-05-03T07:19:51.582Z,102224.55
2023-05-03T07:24:58.764Z,102223.77
2023-05-03T07:30:06.055Z,102227.99
2023-05-03T07:35:11.850Z,102228.02
2023-05-03T07:40:17.457Z,102226.89
2023-05-03T07:45:22.969Z,102230.31
2023-05-03T07:50:37.679Z,102236.13
2023-05-03T07:55:43.440Z,102237.63
2023-05-03T08:00:48.935Z,102236.52
2023-05-03T08:06:01.128Z,102235.22
2023-05-03T08:11:08.812Z,102238.74
2023-05-03T08:16:16.418Z,102241.13
2023-05-03T08:21:23.643Z,102241.76
2023-05-03T08:26:29.996Z,102235.17
2023-05-03T08:31:36.440Z,102241.06
2023-05-03T08:36:41.994Z,102234.00
2023-05-03T08:41:51.168Z,102234.86
2023-05-03T08:46:56.744Z,102231.83
2023-05-03T08:52:03.572Z,102243.16
2023-05-03T08:57:17.845Z,102239.64
2023-05-03T09:02:23.715Z,102230.72
2023-05-03T09:07:29.348Z,102225.89
2023-05-03T09:12:37.783Z,102220.60
2023-05-03T09:17:43.840Z,102230.32
2023-05-03T09:22:52.877Z,102230.78
2023-05-03T09:28:02.720Z,102236.06
2023-05-03T09:33:08.894Z,102235.03
2023-05-03T09:38:17.501Z,102238.95
2023-05-03T09:43:23.630Z,102241.71
2023-05-03T09:48:29.581Z,102241.66
2023-05-03T09:53:40.246Z,102232.34
2023-05-03T09:58:50.622Z,102239.15
2023-05-03T10:03:58.026Z,102237.41
2023-05-03T10:09:20.532Z,102246.80
2023-05-03T10:14:26.604Z,102242.96
2023-05-03T10:19:53.436Z,102245.39
2023-05-03T10:25:05.052Z,102239.59
2023-05-03T10:30:12.794Z,102242.20
2023-05-03T10:35:19.722Z,102239.08
2023-05-03T10:40:29.671Z,102231.73
2023-05-03T10:45:35.174Z,102229.77
2023-05-03T10:50:41.721Z,102228.81
2023-05-03T10:56:05.515Z,102228.25
2023-05-03T11:01:22.095Z,102235.96
2023-05-03T11:06:33.669Z,102237.84
2023-05-03T11:11:41.268Z,102235.02
2023-05-03T11:16:49.369Z,102234.87
2023-05-03T11:21:55.658Z,102224.69
2023-05-03T11:27:08.407Z,102223.51
2023-05-03T11:32:13.172Z,102234.12
2023-05-03T11:37:18.847Z,102233.01
2023-05-03T11:42:34.991Z,102226.11
2023-05-03T11:47:40.734Z,102219.01
2023-05-03T11:52:47.018Z,102224.80
2023-05-03T11:57:53.000Z,102222.17
2023-05-03T12:03:02.401Z,102224.91
2023-05-03T12:08:09.026Z,102227.42
2023-05-03T12:13:18.026Z,102222.73
2023-05-03T12:18:25.112Z,102217.38
2023-05-03T12:23:34.202Z,102216.56
2023-05-03T12:28:41.484Z,102219.09
2023-05-03T12:34:06.015Z,102214.16
2023-05-03T12:38:56.494Z,102209.30
2023-05-03T12:44:05.049Z,102212.59
2023-05-03T12:49:14.515Z,102201.03
2023-05-03T12:54:21.186Z,102211.71
2023-05-03T12:59:41.248Z,102201.16
2023-05-03T13:14:57.206Z,102180.79
2023-05-03T13:20:05.745Z,102175.44
2023-05-03T13:25:13.639Z,102172.17
2023-05-03T13:30:20.267Z,102172.41
2023-05-03T13:35:26.064Z,102179.05
2023-05-03T13:40:31.652Z,102177.70
2023-05-03T13:45:37.187Z,102165.66
2023-05-03T13:50:45.736Z,102162.39
2023-05-03T13:55:51.882Z,102167.52
2023-05-03T14:00:57.570Z,102154.69
2023-05-03T14:06:03.829Z,102157.02
2023-05-03T14:11:28.961Z,102164.55
2023-05-03T14:16:41.455Z,102159.13
2023-05-03T14:21:46.364Z,102143.63
2023-05-03T14:26:52.434Z,102143.73
2023-05-03T14:32:08.198Z,102147.87
2023-05-03T14:37:15.063Z,102143.70
2023-05-03T14:42:33.356Z,102146.30
2023-05-03T14:47:51.827Z,102143.55
2023-05-03T14:53:04.843Z,102141.77
2023-05-03T14:58:10.476Z,102133.17
2023-05-03T15:03:49.855Z,102136.64
2023-05-03T15:08:55.827Z,102132.69
2023-05-03T15:14:01.493Z,102137.54
2023-05-03T15:19:08.036Z,102142.12
2023-05-03T15:24:14.470Z,102135.27
2023-05-03T15:29:22.059Z,102131.81
2023-05-03T15:34:28.013Z,102137.39
2023-05-03T15:39:33.553Z,102132.70
2023-05-03T15:44:39.073Z,102127.69
2023-05-03T15:49:51.603Z,102129.83
2023-05-03T15:54:57.049Z,102137.36
2023-05-03T16:00:04.287Z,102139.81
2023-05-03T16:05:12.012Z,102139.34
2023-05-03T16:10:17.783Z,102146.89
2023-05-03T16:15:23.431Z,102136.27
2023-05-03T16:20:28.985Z,102133.66
2023-05-03T16:25:34.431Z,102128.24
2023-05-03T16:30:39.949Z,102132.41
2023-05-03T16:35:46.015Z,102131.91
2023-05-03T16:40:51.558Z,102129.56
2023-05-03T16:46:02.512Z,102133.88
2023-05-03T16:51:08.128Z,102130.56
2023-05-03T16:56:13.685Z,102126.72
2023-05-03T17:01:19.593Z,102124.80
2023-05-03T17:06:25.303Z,102124.39
2023-05-03T17:11:31.053Z,102127.16
2023-05-03T17:16:40.094Z,102131.06
2023-05-03T17:21:45.740Z,102131.89
2023-05-03T17:26:51.472Z,102133.46
2023-05-03T17:31:57.278Z,102141.36
2023-05-03T17:37:02.900Z,102137.22
2023-05-03T17:42:08.578Z,102136.10
2023-05-03T17:47:15.263Z,102133.54
2023-05-03T17:52:20.994Z,102139.06
2023-05-03T17:57:26.636Z,102150.28
2023-05-03T18:02:32.142Z,102147.67
2023-05-03T18:07:37.592Z,102156.77
2023-05-03T18:12:43.979Z,102155.56
2023-05-03T18:17:49.572Z,102166.67
2023-05-03T18:22:56.899Z,102163.08
2023-05-03T18:28:03.116Z,102165.03
2023-05-03T18:33:09.197Z,102167.94
2023-05-03T18:38:15.921Z,102167.11
2023-05-03T18:43:21.456Z,102172.97
2023-05-03T18:48:27.129Z,102177.29
2023-05-03T18:53:36.545Z,102179.24
2023-05-03T18:58:41.995Z,102181.64
2023-05-03T19:03:47.672Z,102184.64
2023-05-03T19:08:54.092Z,102192.25
2023-05-03T19:14:00.540Z,102193.83
2023-05-03T19:19:11.900Z,102199.28
2023-05-03T19:24:17.630Z,102198.39
2023-05-03T19:29:23.153Z,102198.19
2023-05-03T19:34:28.732Z,102199.41
2023-05-03T19:39:35.849Z,102203.55
2023-05-03T19:44:41.329Z,102215.89
2023-05-03T19:49:47.271Z,102207.23
2023-05-03T19:54:52.939Z,102210.80
2023-05-03T20:00:00.252Z,102209.66
2023-05-03T20:05:09.014Z,102209.51
2023-05-03T20:10:14.765Z,102204.50
2023-05-03T20:15:20.340Z,102211.81
2023-05-03T20:20:26.541Z,102213.30
2023-05-03T20:25:32.970Z,102209.67
2023-05-03T20:30:39.070Z,102211.58
2023-05-03T20:35:44.649Z,102213.63
2023-05-03T20:40:50.368Z,102216.87
2023-05-03T20:45:56.926Z,102217.70
2023-05-03T20:51:02.941Z,102211.57
2023-05-03T20:56:08.732Z,102202.48
2023-05-03T21:01:14.598Z,102196.81
2023-05-03T21:06:22.784Z,102208.63
2023-05-03T21:11:28.295Z,102207.93
2023-05-03T21:16:33.868Z,102212.13
2023-05-03T21:21:39.366Z,102211.02
2023-05-03T21:26:44.881Z,102208.10
2023-05-03T21:31:51.194Z,102207.41
2023-05-03T21:36:56.879Z,102206.16
2023-05-03T21:42:02.380Z,102211.72
2023-05-03T21:47:07.910Z,102211.27
2023-05-03T21:52:14.584Z,102206.89
2023-05-03T21:57:20.051Z,102206.23
2023-05-03T22:02:25.862Z,102205.45
2023-05-03T22:07:31.696Z,102202.53
2023-05-03T22:12:37.229Z,102201.32
2023-05-03T22:17:43.346Z,102203.45
2023-05-03T22:22:48.909Z,102201.98
2023-05-03T22:27:55.337Z,102207.41
2023-05-03T22:33:00.994Z,102203.97
2023-05-03T22:38:07.192Z,102203.67
2023-05-03T22:43:12.757Z,102197.78
2023-05-03T22:48:18.445Z,102208.34
2023-05-03T22:53:23.877Z,102208.07
2023-05-03T22:58:29.777Z,102207.58
2023-05-03T23:03:35.479Z,102206.92
2023-05-03T23:08:41.381Z,102200.09
2023-05-03T23:13:46.816Z,102199.86
2023-05-03T23:18:54.225Z,102197.34
2023-05-03T23:23:59.580Z,102196.14
2023-05-03T23:29:05.088Z,102197.97
2023-05-03T23:34:11.185Z,102207.86
2023-05-03T23:39:16.628Z,102194.61
2023-05-03T23:44:22.092Z,102181.73
2023-05-03T23:49:27.556Z,102182.68
2023-05-03T23:54:33.657Z,102171.14
2023-05-03T23:59:39.512Z,102171.70
